createdAt,value
2023-03-10T00:00:18.264Z,94810.66
2023-03-10T00:02:49.499Z,94824.75
2023-03-10T00:05:17.894Z,94829.94
2023-03-10T00:07:44.654Z,94833.28
2023-03-10T00:10:13.340Z,94851.50
2023-03-10T00:12:40.045Z,94861.13
2023-03-10T00:15:08.300Z,94855.91
2023-03-10T00:17:35.134Z,94830.28
2023-03-10T00:20:01.893Z,94841.81
2023-03-10T00:22:28.555Z,94841.47
2023-03-10T00:24:55.080Z,94851.84
2023-03-10T00:27:21.631Z,94859.63
2023-03-10T00:29:51.732Z,94878.22
2023-03-10T00:32:18.788Z,94876.75
2023-03-10T00:34:45.491Z,94868.53
2023-03-10T00:37:12.719Z,94847.75
2023-03-10T00:39:39.306Z,94820.28
2023-03-10T00:42:06.175Z,94782.78
2023-03-10T00:44:32.938Z,94762.00
2023-03-10T00:46:59.587Z,94731.94
2023-03-10T00:49:26.188Z,94730.09
2023-03-10T00:51:52.938Z,94706.72
2023-03-10T00:54:19.592Z,94707.78
2023-03-10T00:56:46.402Z,94687.38
2023-03-10T00:59:13.143Z,94668.84
2023-03-10T01:01:41.825Z,94655.88
2023-03-10T01:04:13.462Z,94637.31
2023-03-10T01:06:40.748Z,94640.69
2023-03-10T01:09:08.161Z,94616.94
2023-03-10T01:11:35.403Z,94618.03
2023-03-10T01:14:04.496Z,94611.34
2023-03-10T01:16:31.538Z,94606.91
2023-03-10T01:18:58.962Z,94598.75
2023-03-10T01:21:31.964Z,94611.00
2023-03-10T01:24:00.248Z,94569.84
2023-03-10T01:26:27.304Z,94559.44
2023-03-10T01:28:54.199Z,94539.78
2023-03-10T01:31:21.336Z,94524.97
2023-03-10T01:33:47.995Z,94505.31
2023-03-10T01:36:23.763Z,94457.13
2023-03-10T01:38:50.430Z,94437.09
2023-03-10T01:41:18.495Z,94426.75
2023-03-10T01:43:47.386Z,94412.28
2023-03-10T01:46:34.309Z,94394.91
2023-03-10T01:49:10.977Z,94386.00
2023-03-10T01:51:39.525Z,94377.81
2023-03-10T01:54:11.368Z,94382.28
2023-03-10T01:56:38.677Z,94373.41
2023-03-10T01:59:05.688Z,94375.63
2023-03-10T02:01:33.103Z,94374.16
2023-03-10T02:04:07.787Z,94380.44
2023-03-10T02:06:35.457Z,94377.09
2023-03-10T02:09:04.088Z,94367.78
2023-03-10T02:11:30.806Z,94378.16
2023-03-10T02:13:57.626Z,94390.06
2023-03-10T02:16:24.329Z,94381.88
2023-03-10T02:18:51.220Z,94388.53
2023-03-10T02:21:24.289Z,94414.47
2023-03-10T02:24:07.296Z,94418.53
2023-03-10T02:26:33.908Z,94424.88
2023-03-10T02:29:03.912Z,94432.28
2023-03-10T02:31:31.860Z,94426.75
2023-03-10T02:33:58.624Z,94430.09
2023-03-10T02:36:25.503Z,94416.00
2023-03-10T02:38:52.261Z,94427.50
2023-03-10T02:41:33.744Z,94424.53
2023-03-10T02:44:04.561Z,94424.13
2023-03-10T02:46:31.445Z,94424.53
2023-03-10T02:48:59.927Z,94448.66
2023-03-10T02:51:36.120Z,94441.59
2023-03-10T02:54:08.577Z,94469.75
2023-03-10T02:56:36.064Z,94497.22
2023-03-10T02:59:04.685Z,94512.00
2023-03-10T03:01:33.024Z,94520.16
2023-03-10T03:04:00.244Z,94527.22
2023-03-10T03:06:28.146Z,94530.16
2023-03-10T03:08:55.324Z,94498.31
2023-03-10T03:11:24.084Z,94488.31
2023-03-10T03:13:52.318Z,94468.66
2023-03-10T03:16:19.089Z,94470.13
2023-03-10T03:18:48.744Z,94466.03
2023-03-10T03:21:18.622Z,94470.50
2023-03-10T03:23:47.152Z,94472.34
2023-03-10T03:26:21.415Z,94476.44
2023-03-10T03:28:49.760Z,94480.88
2023-03-10T03:31:22.930Z,94513.13
2023-03-10T03:33:53.498Z,94531.69
2023-03-10T03:36:20.486Z,94534.28
2023-03-10T03:38:47.322Z,94554.66
2023-03-10T03:41:16.010Z,94565.78
2023-03-10T03:43:43.416Z,94573.19
2023-03-10T03:46:10.170Z,94567.63
2023-03-10T03:48:36.989Z,94582.06
2023-03-10T03:51:06.853Z,94600.66
2023-03-10T03:53:38.214Z,94602.84
2023-03-10T03:56:05.508Z,94615.06
2023-03-10T03:58:35.031Z,94594.69
2023-03-10T04:01:01.845Z,94582.09
2023-03-10T04:03:32.989Z,94597.69
2023-03-10T04:05:59.910Z,94608.03
2023-03-10T04:08:26.592Z,94589.88
2023-03-10T04:10:55.357Z,94576.13
2023-03-10T04:13:25.420Z,94573.19
2023-03-10T04:15:59.566Z,94563.94
2023-03-10T04:18:31.661Z,94564.28
2023-03-10T04:20:58.477Z,94542.81
2023-03-10T04:23:26.177Z,94540.22
2023-03-10T04:25:53.852Z,94529.81
2023-03-10T04:28:20.552Z,94524.63
2023-03-10T04:30:49.093Z,94523.88
2023-03-10T04:33:19.724Z,94516.09
2023-03-10T04:35:49.099Z,94549.47
2023-03-10T04:38:18.097Z,94570.22
2023-03-10T04:40:53.574Z,94556.50
2023-03-10T04:43:20.919Z,94541.69
2023-03-10T04:45:51.233Z,94533.91
2023-03-10T04:48:18.814Z,94524.28
2023-03-10T04:50:45.748Z,94521.69
2023-03-10T04:53:13.470Z,94530.56
2023-03-10T04:55:40.273Z,94544.25
2023-03-10T04:58:06.922Z,94534.25
2023-03-10T05:00:34.182Z,94532.78
2023-03-10T05:03:01.140Z,94543.16
2023-03-10T05:05:27.818Z,94532.06
2023-03-10T05:07:55.548Z,94536.50
2023-03-10T05:10:22.142Z,94555.75
2023-03-10T05:12:48.770Z,94566.88
2023-03-10T05:15:15.990Z,94570.94
2023-03-10T05:17:42.637Z,94563.19
2023-03-10T05:20:10.316Z,94555.41
2023-03-10T05:22:38.327Z,94556.53
2023-03-10T05:25:09.727Z,94551.31
2023-03-10T05:27:38.104Z,94550.22
2023-03-10T05:30:07.101Z,94552.41
2023-03-10T05:32:35.405Z,94558.38
2023-03-10T05:35:04.270Z,94561.69
2023-03-10T05:37:36.794Z,94559.84
2023-03-10T05:40:04.029Z,94560.56
2023-03-10T05:42:31.066Z,94564.28
2023-03-10T05:44:57.839Z,94554.28
2023-03-10T05:47:24.651Z,94552.41
2023-03-10T05:49:51.479Z,94548.31
2023-03-10T05:52:18.192Z,94542.78
2023-03-10T05:54:45.354Z,94543.16
2023-03-10T05:57:14.185Z,94558.72
2023-03-10T05:59:41.996Z,94582.09
2023-03-10T06:02:08.607Z,94575.78
2023-03-10T06:04:35.390Z,94562.78
2023-03-10T06:07:03.069Z,94560.19
2023-03-10T06:09:31.270Z,94554.28
2023-03-10T06:11:58.868Z,94544.63
2023-03-10T06:14:25.950Z,94536.84
2023-03-10T06:16:56.129Z,94540.19
2023-03-10T06:19:24.033Z,94538.34
2023-03-10T06:21:50.660Z,94535.75
2023-03-10T06:24:17.450Z,94542.06
2023-03-10T06:26:44.099Z,94544.66
2023-03-10T06:29:10.719Z,94539.81
2023-03-10T06:31:37.506Z,94542.41
2023-03-10T06:34:04.705Z,94529.06
2023-03-10T06:36:32.908Z,94525.00
2023-03-10T06:38:59.535Z,94527.22
2023-03-10T06:41:26.180Z,94532.81
2023-03-10T06:43:52.777Z,94534.28
2023-03-10T06:46:19.650Z,94545.00
2023-03-10T06:48:46.354Z,94527.22
2023-03-10T06:51:16.207Z,94509.06
2023-03-10T06:53:43.252Z,94499.44
2023-03-10T06:56:15.850Z,94495.75
2023-03-10T06:58:43.035Z,94496.47
2023-03-10T07:01:24.243Z,94481.66
2023-03-10T07:03:51.118Z,94470.91
2023-03-10T07:06:17.847Z,94453.88
2023-03-10T07:08:44.418Z,94437.22
2023-03-10T07:11:11.159Z,94397.59
2023-03-10T07:13:38.725Z,94380.91
2023-03-10T07:16:05.981Z,94363.53
2023-03-10T07:18:32.978Z,94353.50
2023-03-10T07:20:59.701Z,94346.84
2023-03-10T07:23:26.518Z,94342.75
2023-03-10T07:25:57.573Z,94331.66
2023-03-10T07:28:26.318Z,94318.69
2023-03-10T07:30:53.693Z,94325.00
2023-03-10T07:33:20.555Z,94319.06
2023-03-10T07:35:47.282Z,94324.63
2023-03-10T07:38:14.015Z,94321.66
2023-03-10T07:40:41.112Z,94315.69
2023-03-10T07:43:07.671Z,94310.91
2023-03-10T07:45:35.444Z,94327.19
2023-03-10T07:48:01.989Z,94325.66
2023-03-10T07:50:28.723Z,94320.09
2023-03-10T07:52:56.359Z,94303.78
2023-03-10T07:55:24.497Z,94303.78
2023-03-10T07:57:51.049Z,94296.00
2023-03-10T08:00:18.287Z,94311.91
2023-03-10T08:02:45.000Z,94341.19
2023-03-10T08:05:12.243Z,94359.31
2023-03-10T08:07:39.133Z,94372.25
2023-03-10T08:10:06.991Z,94396.69
2023-03-10T08:12:34.057Z,94415.59
2023-03-10T08:15:00.788Z,94448.56
2023-03-10T08:17:30.996Z,94481.19
2023-03-10T08:19:58.789Z,94484.50
2023-03-10T08:22:26.073Z,94501.94
2023-03-10T08:24:53.243Z,94513.09
2023-03-10T08:27:21.589Z,94540.88
2023-03-10T08:29:48.192Z,94547.56
2023-03-10T08:32:14.802Z,94576.53
2023-03-10T08:34:43.143Z,94595.78
2023-03-10T08:37:10.970Z,94581.72
2023-03-10T08:39:37.822Z,94559.81
2023-03-10T08:42:04.561Z,94539.81
2023-03-10T08:44:31.207Z,94532.81
2023-03-10T08:46:58.064Z,94535.38
2023-03-10T08:49:24.778Z,94530.19
2023-03-10T08:51:51.597Z,94532.81
2023-03-10T08:54:20.196Z,94527.94
2023-03-10T08:56:48.096Z,94539.81
2023-03-10T08:59:15.027Z,94550.19
2023-03-10T09:01:42.086Z,94570.59
2023-03-10T09:04:09.581Z,94568.31
2023-03-10T09:06:37.315Z,94590.97
2023-03-10T09:09:05.669Z,94594.28
2023-03-10T09:11:35.929Z,94624.38
2023-03-10T09:14:04.591Z,94642.50
2023-03-10T09:16:31.641Z,94700.75
2023-03-10T09:18:58.894Z,94778.34
2023-03-10T09:21:27.102Z,94772.25
2023-03-10T09:23:54.155Z,94828.38
2023-03-10T09:26:22.022Z,94871.69
2023-03-10T09:28:51.066Z,94880.06
2023-03-10T09:31:21.960Z,94875.25
2023-03-10T09:33:49.194Z,94879.31
2023-03-10T09:36:16.445Z,94870.78
2023-03-10T09:38:43.328Z,94895.28
2023-03-10T09:41:28.727Z,94900.16
2023-03-10T09:44:14.174Z,94903.09
2023-03-10T09:47:33.289Z,94874.84
2023-03-10T09:50:24.764Z,94867.03
2023-03-10T09:53:12.985Z,94876.72
2023-03-10T09:55:47.960Z,94857.44
2023-03-10T09:58:56.288Z,94861.09
2023-03-10T10:01:26.898Z,94897.88
2023-03-10T10:03:58.098Z,94942.16
2023-03-10T10:06:32.612Z,94979.59
2023-03-10T10:09:07.973Z,95002.75
2023-03-10T10:11:37.001Z,94995.91
2023-03-10T10:14:38.417Z,94981.16
2023-03-10T10:17:28.871Z,95001.25
2023-03-10T10:19:59.306Z,94994.88
2023-03-10T10:22:28.057Z,95017.59
2023-03-10T10:25:10.480Z,95051.44
2023-03-10T10:27:38.251Z,95044.72
2023-03-10T10:30:29.845Z,95035.06
2023-03-10T10:33:02.109Z,95015.72
2023-03-10T10:35:35.440Z,94994.91
2023-03-10T10:38:11.121Z,95014.22
2023-03-10T10:40:59.411Z,95040.28
2023-03-10T10:43:26.134Z,95049.59
2023-03-10T10:46:14.015Z,95087.09
2023-03-10T10:48:46.369Z,95107.97
2023-03-10T10:51:29.304Z,95086.38
2023-03-10T10:54:22.604Z,95111.63
2023-03-10T10:57:00.411Z,95161.56
2023-03-10T10:59:35.897Z,95105.31
2023-03-10T11:02:20.847Z,95171.88
2023-03-10T11:04:47.659Z,95198.78
2023-03-10T11:07:17.789Z,95197.25
2023-03-10T11:09:44.422Z,95201.75
2023-03-10T11:12:34.887Z,95189.84
2023-03-10T11:15:07.539Z,95156.75
2023-03-10T11:17:56.253Z,95151.41
2023-03-10T11:20:45.256Z,95190.56
2023-03-10T11:23:20.694Z,95169.75
2023-03-10T11:25:53.181Z,95152.63
2023-03-10T11:28:49.131Z,95139.59
2023-03-10T11:31:25.530Z,95168.56
2023-03-10T11:34:23.480Z,95173.75
2023-03-10T11:36:59.219Z,95161.50
2023-03-10T11:39:41.252Z,95156.31
2023-03-10T11:42:29.195Z,95147.78
2023-03-10T11:45:04.766Z,95162.69
2023-03-10T11:47:56.221Z,95138.47
2023-03-10T11:50:44.227Z,95143.94
2023-03-10T11:53:45.071Z,95145.81
2023-03-10T11:56:14.925Z,95138.09
2023-03-10T11:58:50.197Z,95095.69
2023-03-10T12:01:42.806Z,95092.38
2023-03-10T12:04:18.225Z,95083.44
2023-03-10T12:07:12.669Z,95025.75
2023-03-10T12:09:39.224Z,95018.75
2023-03-10T12:12:07.624Z,95002.34
2023-03-10T12:14:35.141Z,94971.88
2023-03-10T12:17:03.687Z,94934.31
2023-03-10T12:19:30.310Z,94899.38
2023-03-10T12:22:40.228Z,94864.81
2023-03-10T12:25:28.388Z,94816.56
2023-03-10T12:28:24.750Z,94757.53
2023-03-10T12:31:03.857Z,94735.66
2023-03-10T12:33:30.546Z,94718.19
2023-03-10T12:36:27.489Z,94696.31
2023-03-10T12:38:59.071Z,94680.00
2023-03-10T12:41:28.374Z,94679.22
2023-03-10T12:43:58.838Z,94658.47
2023-03-10T12:46:53.250Z,94650.66
2023-03-10T12:49:32.050Z,94618.03
2023-03-10T12:52:17.069Z,94597.66
2023-03-10T12:55:01.703Z,94581.34
2023-03-10T12:57:41.339Z,94556.13
2023-03-10T13:00:39.137Z,94535.75
2023-03-10T13:03:27.889Z,94529.06
2023-03-10T13:06:02.275Z,94506.44
2023-03-10T13:08:44.056Z,94496.41
2023-03-10T13:11:19.812Z,94494.59
2023-03-10T13:14:10.641Z,94476.03
2023-03-10T13:16:37.480Z,94440.06
2023-03-10T13:19:04.901Z,94444.88
2023-03-10T13:21:38.693Z,94444.19
2023-03-10T13:24:39.110Z,94427.88
2023-03-10T13:27:15.866Z,94424.84
2023-03-10T13:30:02.684Z,94400.81
2023-03-10T13:32:30.822Z,94390.47
2023-03-10T13:34:58.123Z,94404.53
2023-03-10T13:37:25.547Z,94414.88
2023-03-10T13:39:52.846Z,94415.66
2023-03-10T13:42:42.976Z,94408.19
2023-03-10T13:45:22.086Z,94399.59
2023-03-10T13:47:50.385Z,94408.06
2023-03-10T13:50:17.784Z,94414.78
2023-03-10T13:52:57.317Z,94409.34
2023-03-10T13:55:24.670Z,94399.31
2023-03-10T13:57:52.044Z,94391.56
2023-03-10T14:00:21.888Z,94378.59
2023-03-10T14:02:52.359Z,94357.53
2023-03-10T14:05:42.830Z,94332.31
2023-03-10T14:08:28.910Z,94340.06
2023-03-10T14:11:31.212Z,94347.50
2023-03-10T14:13:58.723Z,94338.63
2023-03-10T14:16:51.587Z,94354.16
2023-03-10T14:19:46.887Z,94351.56
2023-03-10T14:22:43.706Z,94356.72
2023-03-10T14:25:16.317Z,94358.91
2023-03-10T14:27:49.172Z,94360.41
2023-03-10T14:30:28.837Z,94352.31
2023-03-10T14:32:57.163Z,94321.16
2023-03-10T14:35:25.617Z,94285.25
2023-03-10T14:37:53.319Z,94380.84
2023-03-10T14:40:22.508Z,94398.66
2023-03-10T14:42:50.876Z,94415.31
2023-03-10T14:45:31.846Z,94464.25
2023-03-10T14:48:01.493Z,94510.16
2023-03-10T14:50:29.573Z,94512.38
2023-03-10T14:52:56.297Z,94487.16
2023-03-10T14:55:23.324Z,94505.69
2023-03-10T14:57:56.923Z,94527.16
2023-03-10T15:00:23.777Z,94540.09
2023-03-10T15:02:50.458Z,94528.94
2023-03-10T15:05:23.666Z,94567.44
2023-03-10T15:07:51.589Z,94567.47
2023-03-10T15:10:20.933Z,94591.53
2023-03-10T15:12:49.996Z,94606.28
2023-03-10T15:15:22.020Z,94628.06
2023-03-10T15:17:48.904Z,94612.16
2023-03-10T15:20:21.467Z,94624.72
2023-03-10T15:22:49.178Z,94629.31
2023-03-10T15:25:18.866Z,94575.59
2023-03-10T15:27:47.223Z,94576.69
2023-03-10T15:30:18.479Z,94592.97
2023-03-10T15:32:45.439Z,94574.03
2023-03-10T15:35:13.248Z,94561.06
2023-03-10T15:37:39.930Z,94568.41
2023-03-10T15:40:07.131Z,94567.59
2023-03-10T15:42:33.837Z,94572.00
2023-03-10T15:45:00.826Z,94567.97
2023-03-10T15:47:28.175Z,94571.13
2023-03-10T15:49:54.711Z,94562.56
2023-03-10T15:52:23.369Z,94566.63
2023-03-10T15:54:50.358Z,94563.69
2023-03-10T15:57:17.092Z,94586.59
2023-03-10T15:59:43.697Z,94600.66
2023-03-10T16:02:12.131Z,94589.91
2023-03-10T16:04:38.915Z,94581.00
2023-03-10T16:07:05.843Z,94585.13
2023-03-10T16:09:33.343Z,94583.63
2023-03-10T16:11:59.980Z,94598.78
2023-03-10T16:14:27.193Z,94615.69
2023-03-10T16:16:54.050Z,94647.41
2023-03-10T16:19:20.832Z,94686.53
2023-03-10T16:21:47.444Z,94712.94
2023-03-10T16:24:14.032Z,94767.84
2023-03-10T16:26:42.082Z,94775.75
2023-03-10T16:29:10.153Z,94846.72
2023-03-10T16:31:38.979Z,94866.13
2023-03-10T16:34:06.184Z,94912.38
2023-03-10T16:36:36.412Z,94869.69
2023-03-10T16:39:12.882Z,94890.72
2023-03-10T16:41:39.656Z,94897.38
2023-03-10T16:44:07.520Z,94899.41
2023-03-10T16:46:34.607Z,94925.22
2023-03-10T16:49:01.898Z,94928.06
2023-03-10T16:51:38.583Z,94891.09
2023-03-10T16:54:14.978Z,94899.06
2023-03-10T16:56:46.484Z,94896.63
2023-03-10T16:59:18.179Z,94905.06
2023-03-10T17:01:45.635Z,94905.06
2023-03-10T17:04:12.684Z,94928.50
2023-03-10T17:06:39.719Z,94924.69
2023-03-10T17:09:09.010Z,94929.69
2023-03-10T17:11:38.197Z,94905.19
2023-03-10T17:14:10.317Z,94958.28
2023-03-10T17:16:38.386Z,94950.84
2023-03-10T17:19:08.495Z,94940.47
2023-03-10T17:21:39.525Z,94916.69
2023-03-10T17:24:07.968Z,94876.88
2023-03-10T17:26:35.804Z,94841.50
2023-03-10T17:29:03.125Z,94810.25
2023-03-10T17:31:30.240Z,94797.25
2023-03-10T17:34:03.201Z,94819.66
2023-03-10T17:36:29.967Z,94838.63
2023-03-10T17:38:59.125Z,94825.34
2023-03-10T17:41:27.066Z,94881.56
2023-03-10T17:43:55.088Z,94907.38
2023-03-10T17:46:25.117Z,94981.09
2023-03-10T17:48:52.437Z,95008.94
2023-03-10T17:51:25.076Z,95032.44
2023-03-10T17:53:52.426Z,95065.34
2023-03-10T17:56:19.282Z,95107.69
2023-03-10T17:58:45.962Z,95121.25
2023-03-10T18:01:22.225Z,95128.72
2023-03-10T18:03:49.120Z,95095.75
2023-03-10T18:06:18.879Z,95114.34
2023-03-10T18:08:45.996Z,95138.75
2023-03-10T18:11:12.902Z,95158.88
2023-03-10T18:13:40.035Z,95108.13
2023-03-10T18:16:08.083Z,95162.72
2023-03-10T18:18:34.898Z,95191.59
2023-03-10T18:21:01.526Z,95192.97
2023-03-10T18:23:28.220Z,95200.09
2023-03-10T18:25:54.941Z,95225.25
2023-03-10T18:28:23.201Z,95235.97
2023-03-10T18:30:52.084Z,95252.25
2023-03-10T18:33:19.261Z,95246.09
2023-03-10T18:35:46.903Z,95295.06
2023-03-10T18:38:15.490Z,95271.72
2023-03-10T18:40:42.712Z,95262.34
2023-03-10T18:43:09.492Z,95305.31
2023-03-10T18:45:39.409Z,95306.50
2023-03-10T18:48:07.678Z,95324.59
2023-03-10T18:50:34.348Z,95332.59
2023-03-10T18:53:02.101Z,95336.63
2023-03-10T18:55:28.884Z,95360.13
2023-03-10T18:57:55.558Z,95358.19
2023-03-10T19:00:22.605Z,95364.31
2023-03-10T19:02:51.441Z,95373.19
2023-03-10T19:05:18.250Z,95391.28
2023-03-10T19:07:44.844Z,95395.34
2023-03-10T19:10:13.026Z,95408.06
2023-03-10T19:12:40.123Z,95427.16
2023-03-10T19:15:09.191Z,95417.56
2023-03-10T19:17:37.697Z,95435.50
2023-03-10T19:20:07.972Z,95438.50
2023-03-10T19:22:35.666Z,95454.63
2023-03-10T19:25:03.615Z,95467.59
2023-03-10T19:27:30.908Z,95470.28
2023-03-10T19:29:57.997Z,95433.34
2023-03-10T19:32:25.102Z,95464.41
2023-03-10T19:34:51.891Z,95462.59
2023-03-10T19:37:18.885Z,95481.25
2023-03-10T19:39:45.471Z,95488.22
2023-03-10T19:42:12.060Z,95508.81
2023-03-10T19:44:39.502Z,95505.22
2023-03-10T19:47:06.123Z,95537.41
2023-03-10T19:49:34.289Z,95542.09
2023-03-10T19:52:01.777Z,95551.31
2023-03-10T19:54:28.602Z,95567.94
2023-03-10T19:56:55.220Z,95567.78
2023-03-10T19:59:21.778Z,95585.22
2023-03-10T20:01:49.402Z,95621.16
2023-03-10T20:04:16.393Z,95617.84
2023-03-10T20:06:43.067Z,95629.59
2023-03-10T20:09:10.714Z,95638.22
2023-03-10T20:11:41.273Z,95648.75
2023-03-10T20:14:08.548Z,95683.75
2023-03-10T20:16:35.428Z,95653.78
2023-03-10T20:19:02.048Z,95692.00
2023-03-10T20:21:29.255Z,95691.88
2023-03-10T20:23:56.416Z,95684.97
2023-03-10T20:26:23.492Z,95667.97
2023-03-10T20:28:50.701Z,95673.50
2023-03-10T20:31:22.582Z,95676.91
2023-03-10T20:33:50.186Z,95674.25
2023-03-10T20:36:16.889Z,95693.50
2023-03-10T20:38:44.551Z,95706.75
2023-03-10T20:41:12.747Z,95696.25
2023-03-10T20:43:43.119Z,95728.28
2023-03-10T20:46:10.140Z,95735.41
2023-03-10T20:48:37.441Z,95748.66
2023-03-10T20:51:04.227Z,95771.63
2023-03-10T20:53:33.335Z,95800.53
2023-03-10T20:56:01.043Z,95796.84
2023-03-10T20:58:28.152Z,95803.66
2023-03-10T21:00:54.909Z,95791.91
2023-03-10T21:03:22.011Z,95796.31
2023-03-10T21:05:48.587Z,95787.03
2023-03-10T21:08:15.462Z,95799.06
2023-03-10T21:10:42.104Z,95799.75
2023-03-10T21:13:08.720Z,95786.94
2023-03-10T21:15:35.572Z,95794.31
2023-03-10T21:18:02.277Z,95797.00
2023-03-10T21:20:29.021Z,95810.19
2023-03-10T21:22:55.689Z,95808.59
2023-03-10T21:25:24.844Z,95818.59
2023-03-10T21:27:53.636Z,95841.00
2023-03-10T21:30:23.573Z,95827.50
2023-03-10T21:32:50.257Z,95863.03
2023-03-10T21:35:17.696Z,95861.66
2023-03-10T21:37:48.543Z,95882.63
2023-03-10T21:40:19.789Z,95874.34
2023-03-10T21:42:48.251Z,95878.63
2023-03-10T21:45:18.050Z,95889.69
2023-03-10T21:47:44.959Z,95901.78
2023-03-10T21:50:13.264Z,95916.72
2023-03-10T21:52:41.008Z,95922.75
2023-03-10T21:55:11.435Z,95933.13
2023-03-10T21:57:38.384Z,95923.44
2023-03-10T22:00:09.353Z,95940.31
2023-03-10T22:02:37.094Z,95934.00
2023-03-10T22:05:06.194Z,95910.09
2023-03-10T22:07:33.204Z,95895.09
2023-03-10T22:09:59.940Z,95891.13
2023-03-10T22:12:26.566Z,95871.44
2023-03-10T22:14:56.417Z,95856.28
2023-03-10T22:17:24.857Z,95837.34
2023-03-10T22:19:54.758Z,95819.72
2023-03-10T22:22:22.751Z,95814.56
2023-03-10T22:24:50.016Z,95809.63
2023-03-10T22:27:17.253Z,95821.88
2023-03-10T22:29:43.953Z,95838.59
2023-03-10T22:32:10.981Z,95833.06
2023-03-10T22:34:37.787Z,95848.28
2023-03-10T22:37:04.694Z,95858.59
2023-03-10T22:39:31.497Z,95874.88
2023-03-10T22:41:58.155Z,95878.38
2023-03-10T22:44:24.783Z,95870.13
2023-03-10T22:46:51.405Z,95882.69
2023-03-10T22:49:18.848Z,95901.72
2023-03-10T22:51:46.442Z,95916.72
2023-03-10T22:54:13.112Z,95912.50
2023-03-10T22:56:39.666Z,95934.06
2023-03-10T22:59:06.459Z,95935.38
2023-03-10T23:01:33.245Z,95937.13
2023-03-10T23:04:00.022Z,95946.41
2023-03-10T23:06:29.228Z,95963.25
2023-03-10T23:08:56.884Z,95963.75
2023-03-10T23:11:24.139Z,95961.72
2023-03-10T23:13:51.612Z,95970.78
2023-03-10T23:16:19.820Z,95980.06
2023-03-10T23:18:47.193Z,95973.88
2023-03-10T23:21:13.983Z,95990.75
2023-03-10T23:23:43.725Z,95991.94
2023-03-10T23:26:11.653Z,96000.63
2023-03-10T23:28:38.572Z,96002.50
2023-03-10T23:31:06.640Z,96014.53
2023-03-10T23:33:33.985Z,96014.25
2023-03-10T23:36:00.590Z,96009.19
2023-03-10T23:38:27.982Z,96025.50
2023-03-10T23:40:55.582Z,96023.41
2023-03-10T23:43:22.711Z,96023.56
2023-03-10T23:45:49.869Z,96025.78
2023-03-10T23:48:18.045Z,96038.75
2023-03-10T23:50:46.571Z,96038.84
2023-03-10T23:53:14.749Z,96042.94
2023-03-10T23:55:43.458Z,96040.00
2023-03-10T23:58:10.551Z,96041.69
